<?xml version="1.0" encoding="UTF-8" ?>
<gpx version="1.0" xmlns:xsi="http://www.w3.org/2001/XMLSchema-instance"
	xmlns="http://www.topografix.com/GPX/1/0"
	xsi:schemaLocation="http://www.topografix.com/GPX/1/0 http://www.topografix.com/GPX/1/0/gpx.xsd"
	creator="https://www.openrunner.com">	<trk>
						<name>10088438-Pralognan_La_Corniche</name>
						<trkseg>
					<trkpt lat="45.381550" lon="6.715310">
						<ele>1418</ele>
						<time>2019-06-12T16:47:05Z</time>
					</trkpt>
					<trkpt lat="45.381600" lon="6.714990">
						<ele>1418</ele>
						<time>2019-06-12T16:47:23Z</time>
					</trkpt>
					<trkpt lat="45.381640" lon="6.714890">
						<ele>1419</ele>
						<time>2019-06-12T16:47:30Z</time>
					</trkpt>
					<trkpt lat="45.381720" lon="6.714660">
						<ele>1422</ele>
						<time>2019-06-12T16:47:44Z</time>
					</trkpt>
					<trkpt lat="45.381800" lon="6.714490">
						<ele>1424</ele>
						<time>2019-06-12T16:47:56Z</time>
					</trkpt>
					<trkpt lat="45.381840" lon="6.714390">
						<ele>1425</ele>
						<time>2019-06-12T16:48:02Z</time>
					</trkpt>
					<trkpt lat="45.381860" lon="6.714300">
						<ele>1426</ele>
						<time>2019-06-12T16:48:08Z</time>
					</trkpt>
					<trkpt lat="45.381880" lon="6.714200">
						<ele>1427</ele>
						<time>2019-06-12T16:48:13Z</time>
					</trkpt>
					<trkpt lat="45.381900" lon="6.714090">
						<ele>1428</ele>
						<time>2019-06-12T16:48:20Z</time>
					</trkpt>
					<trkpt lat="45.381950" lon="6.713840">
						<ele>1430</ele>
						<time>2019-06-12T16:48:34Z</time>
					</trkpt>
					<trkpt lat="45.381910" lon="6.713540">
						<ele>1436</ele>
						<time>2019-06-12T16:48:52Z</time>
					</trkpt>
					<trkpt lat="45.381920" lon="6.713340">
						<ele>1439</ele>
						<time>2019-06-12T16:49:03Z</time>
					</trkpt>
					<trkpt lat="45.381930" lon="6.713230">
						<ele>1440</ele>
						<time>2019-06-12T16:49:09Z</time>
					</trkpt>
					<trkpt lat="45.382000" lon="6.713010">
						<ele>1442</ele>
						<time>2019-06-12T16:49:23Z</time>
					</trkpt>
					<trkpt lat="45.382030" lon="6.712860">
						<ele>1444</ele>
						<time>2019-06-12T16:49:32Z</time>
					</trkpt>
					<trkpt lat="45.382030" lon="6.712680">
						<ele>1447</ele>
						<time>2019-06-12T16:49:42Z</time>
					</trkpt>
					<trkpt lat="45.382070" lon="6.712500">
						<ele>1449</ele>
						<time>2019-06-12T16:49:52Z</time>
					</trkpt>
					<trkpt lat="45.382060" lon="6.711840">
						<ele>1465</ele>
						<time>2019-06-12T16:50:29Z</time>
					</trkpt>
					<trkpt lat="45.382080" lon="6.711700">
						<ele>1467</ele>
						<time>2019-06-12T16:50:37Z</time>
					</trkpt>
					<trkpt lat="45.382150" lon="6.711600">
						<ele>1468</ele>
						<time>2019-06-12T16:50:45Z</time>
					</trkpt>
					<trkpt lat="45.382500" lon="6.711280">
						<ele>1469</ele>
						<time>2019-06-12T16:51:19Z</time>
					</trkpt>
					<trkpt lat="45.382610" lon="6.711150">
						<ele>1473</ele>
						<time>2019-06-12T16:51:30Z</time>
					</trkpt>
					<trkpt lat="45.382710" lon="6.711080">
						<ele>1476</ele>
						<time>2019-06-12T16:51:39Z</time>
					</trkpt>
					<trkpt lat="45.382790" lon="6.711020">
						<ele>1478</ele>
						<time>2019-06-12T16:51:46Z</time>
					</trkpt>
					<trkpt lat="45.383270" lon="6.710870">
						<ele>1483</ele>
						<time>2019-06-12T16:52:26Z</time>
					</trkpt>
					<trkpt lat="45.383510" lon="6.710800">
						<ele>1487</ele>
						<time>2019-06-12T16:52:45Z</time>
					</trkpt>
					<trkpt lat="45.383610" lon="6.710690">
						<ele>1492</ele>
						<time>2019-06-12T16:52:55Z</time>
					</trkpt>
					<trkpt lat="45.383680" lon="6.710640">
						<ele>1495</ele>
						<time>2019-06-12T16:53:02Z</time>
					</trkpt>
					<trkpt lat="45.383750" lon="6.710600">
						<ele>1497</ele>
						<time>2019-06-12T16:53:08Z</time>
					</trkpt>
					<trkpt lat="45.383830" lon="6.710550">
						<ele>1500</ele>
						<time>2019-06-12T16:53:15Z</time>
					</trkpt>
					<trkpt lat="45.384060" lon="6.710440">
						<ele>1505</ele>
						<time>2019-06-12T16:53:34Z</time>
					</trkpt>
					<trkpt lat="45.384140" lon="6.710410">
						<ele>1507</ele>
						<time>2019-06-12T16:53:41Z</time>
					</trkpt>
					<trkpt lat="45.384220" lon="6.710410">
						<ele>1508</ele>
						<time>2019-06-12T16:53:47Z</time>
					</trkpt>
					<trkpt lat="45.384300" lon="6.710440">
						<ele>1508</ele>
						<time>2019-06-12T16:53:54Z</time>
					</trkpt>
					<trkpt lat="45.384380" lon="6.710480">
						<ele>1507</ele>
						<time>2019-06-12T16:54:01Z</time>
					</trkpt>
					<trkpt lat="45.384660" lon="6.710710">
						<ele>1504</ele>
						<time>2019-06-12T16:54:26Z</time>
					</trkpt>
					<trkpt lat="45.384760" lon="6.710780">
						<ele>1503</ele>
						<time>2019-06-12T16:54:35Z</time>
					</trkpt>
					<trkpt lat="45.385070" lon="6.710830">
						<ele>1505</ele>
						<time>2019-06-12T16:55:00Z</time>
					</trkpt>
					<trkpt lat="45.385140" lon="6.710820">
						<ele>1505</ele>
						<time>2019-06-12T16:55:06Z</time>
					</trkpt>
					<trkpt lat="45.385220" lon="6.710780">
						<ele>1506</ele>
						<time>2019-06-12T16:55:13Z</time>
					</trkpt>
					<trkpt lat="45.385290" lon="6.710720">
						<ele>1508</ele>
						<time>2019-06-12T16:55:19Z</time>
					</trkpt>
					<trkpt lat="45.385410" lon="6.710560">
						<ele>1513</ele>
						<time>2019-06-12T16:55:32Z</time>
					</trkpt>
					<trkpt lat="45.385570" lon="6.710270">
						<ele>1521</ele>
						<time>2019-06-12T16:55:53Z</time>
					</trkpt>
					<trkpt lat="45.385630" lon="6.710190">
						<ele>1523</ele>
						<time>2019-06-12T16:56:00Z</time>
					</trkpt>
					<trkpt lat="45.385820" lon="6.710070">
						<ele>1527</ele>
						<time>2019-06-12T16:56:16Z</time>
					</trkpt>
					<trkpt lat="45.385880" lon="6.710010">
						<ele>1529</ele>
						<time>2019-06-12T16:56:22Z</time>
					</trkpt>
					<trkpt lat="45.385930" lon="6.709920">
						<ele>1533</ele>
						<time>2019-06-12T16:56:29Z</time>
					</trkpt>
					<trkpt lat="45.385970" lon="6.709820">
						<ele>1538</ele>
						<time>2019-06-12T16:56:35Z</time>
					</trkpt>
					<trkpt lat="45.386000" lon="6.709790">
						<ele>1540</ele>
						<time>2019-06-12T16:56:38Z</time>
					</trkpt>
					<trkpt lat="45.386030" lon="6.709750">
						<ele>1542</ele>
						<time>2019-06-12T16:56:41Z</time>
					</trkpt>
					<trkpt lat="45.386110" lon="6.709710">
						<ele>1544</ele>
						<time>2019-06-12T16:56:48Z</time>
					</trkpt>
					<trkpt lat="45.386290" lon="6.709670">
						<ele>1548</ele>
						<time>2019-06-12T16:57:03Z</time>
					</trkpt>
					<trkpt lat="45.386480" lon="6.709610">
						<ele>1553</ele>
						<time>2019-06-12T16:57:18Z</time>
					</trkpt>
					<trkpt lat="45.386680" lon="6.709530">
						<ele>1559</ele>
						<time>2019-06-12T16:57:35Z</time>
					</trkpt>
					<trkpt lat="45.386740" lon="6.709490">
						<ele>1561</ele>
						<time>2019-06-12T16:57:40Z</time>
					</trkpt>
					<trkpt lat="45.387190" lon="6.709290">
						<ele>1572</ele>
						<time>2019-06-12T16:58:18Z</time>
					</trkpt>
					<trkpt lat="45.387420" lon="6.709140">
						<ele>1580</ele>
						<time>2019-06-12T16:58:38Z</time>
					</trkpt>
					<trkpt lat="45.387540" lon="6.709130">
						<ele>1581</ele>
						<time>2019-06-12T16:58:48Z</time>
					</trkpt>
					<trkpt lat="45.387700" lon="6.709130">
						<ele>1581</ele>
						<time>2019-06-12T16:59:01Z</time>
					</trkpt>
					<trkpt lat="45.387780" lon="6.709150">
						<ele>1581</ele>
						<time>2019-06-12T16:59:07Z</time>
					</trkpt>
					<trkpt lat="45.387850" lon="6.709190">
						<ele>1580</ele>
						<time>2019-06-12T16:59:13Z</time>
					</trkpt>
					<trkpt lat="45.387920" lon="6.709260">
						<ele>1576</ele>
						<time>2019-06-12T16:59:20Z</time>
					</trkpt>
					<trkpt lat="45.387970" lon="6.709330">
						<ele>1573</ele>
						<time>2019-06-12T16:59:26Z</time>
					</trkpt>
					<trkpt lat="45.388020" lon="6.709430">
						<ele>1568</ele>
						<time>2019-06-12T16:59:33Z</time>
					</trkpt>
					<trkpt lat="45.388060" lon="6.709470">
						<ele>1567</ele>
						<time>2019-06-12T16:59:37Z</time>
					</trkpt>
					<trkpt lat="45.388090" lon="6.709510">
						<ele>1565</ele>
						<time>2019-06-12T16:59:40Z</time>
					</trkpt>
					<trkpt lat="45.388130" lon="6.709520">
						<ele>1564</ele>
						<time>2019-06-12T16:59:43Z</time>
					</trkpt>
					<trkpt lat="45.388150" lon="6.709520">
						<ele>1564</ele>
						<time>2019-06-12T16:59:45Z</time>
					</trkpt>
					<trkpt lat="45.388220" lon="6.709470">
						<ele>1567</ele>
						<time>2019-06-12T16:59:51Z</time>
					</trkpt>
					<trkpt lat="45.388320" lon="6.709350">
						<ele>1573</ele>
						<time>2019-06-12T17:00:01Z</time>
					</trkpt>
					<trkpt lat="45.388360" lon="6.709300">
						<ele>1576</ele>
						<time>2019-06-12T17:00:06Z</time>
					</trkpt>
					<trkpt lat="45.388570" lon="6.708970">
						<ele>1584</ele>
						<time>2019-06-12T17:00:31Z</time>
					</trkpt>
					<trkpt lat="45.388790" lon="6.708690">
						<ele>1589</ele>
						<time>2019-06-12T17:00:54Z</time>
					</trkpt>
					<trkpt lat="45.388930" lon="6.708550">
						<ele>1590</ele>
						<time>2019-06-12T17:01:08Z</time>
					</trkpt>
					<trkpt lat="45.389010" lon="6.708530">
						<ele>1590</ele>
						<time>2019-06-12T17:01:15Z</time>
					</trkpt>
					<trkpt lat="45.389080" lon="6.708490">
						<ele>1590</ele>
						<time>2019-06-12T17:01:21Z</time>
					</trkpt>
					<trkpt lat="45.389150" lon="6.708420">
						<ele>1590</ele>
						<time>2019-06-12T17:01:27Z</time>
					</trkpt>
					<trkpt lat="45.389210" lon="6.708300">
						<ele>1593</ele>
						<time>2019-06-12T17:01:36Z</time>
					</trkpt>
					<trkpt lat="45.389280" lon="6.708200">
						<ele>1594</ele>
						<time>2019-06-12T17:01:44Z</time>
					</trkpt>
					<trkpt lat="45.389350" lon="6.708160">
						<ele>1594</ele>
						<time>2019-06-12T17:01:50Z</time>
					</trkpt>
					<trkpt lat="45.389380" lon="6.708150">
						<ele>1594</ele>
						<time>2019-06-12T17:01:52Z</time>
					</trkpt>
					<trkpt lat="45.389490" lon="6.708180">
						<ele>1592</ele>
						<time>2019-06-12T17:02:01Z</time>
					</trkpt>
					<trkpt lat="45.389640" lon="6.708210">
						<ele>1589</ele>
						<time>2019-06-12T17:02:13Z</time>
					</trkpt>
					<trkpt lat="45.389740" lon="6.708200">
						<ele>1588</ele>
						<time>2019-06-12T17:02:21Z</time>
					</trkpt>
					<trkpt lat="45.389820" lon="6.708130">
						<ele>1589</ele>
						<time>2019-06-12T17:02:29Z</time>
					</trkpt>
					<trkpt lat="45.389900" lon="6.708010">
						<ele>1591</ele>
						<time>2019-06-12T17:02:38Z</time>
					</trkpt>
					<trkpt lat="45.389990" lon="6.707790">
						<ele>1594</ele>
						<time>2019-06-12T17:02:52Z</time>
					</trkpt>
					<trkpt lat="45.390020" lon="6.707740">
						<ele>1595</ele>
						<time>2019-06-12T17:02:56Z</time>
					</trkpt>
					<trkpt lat="45.390090" lon="6.707620">
						<ele>1596</ele>
						<time>2019-06-12T17:03:05Z</time>
					</trkpt>
					<trkpt lat="45.390210" lon="6.707340">
						<ele>1601</ele>
						<time>2019-06-12T17:03:23Z</time>
					</trkpt>
					<trkpt lat="45.390280" lon="6.707240">
						<ele>1602</ele>
						<time>2019-06-12T17:03:31Z</time>
					</trkpt>
					<trkpt lat="45.390480" lon="6.707110">
						<ele>1601</ele>
						<time>2019-06-12T17:03:49Z</time>
					</trkpt>
					<trkpt lat="45.390700" lon="6.707000">
						<ele>1599</ele>
						<time>2019-06-12T17:04:08Z</time>
					</trkpt>
					<trkpt lat="45.390820" lon="6.706970">
						<ele>1597</ele>
						<time>2019-06-12T17:04:17Z</time>
					</trkpt>
					<trkpt lat="45.391200" lon="6.706900">
						<ele>1594</ele>
						<time>2019-06-12T17:04:48Z</time>
					</trkpt>
					<trkpt lat="45.391420" lon="6.706880">
						<ele>1591</ele>
						<time>2019-06-12T17:05:06Z</time>
					</trkpt>
					<trkpt lat="45.391530" lon="6.706850">
						<ele>1591</ele>
						<time>2019-06-12T17:05:15Z</time>
					</trkpt>
					<trkpt lat="45.391620" lon="6.706780">
						<ele>1591</ele>
						<time>2019-06-12T17:05:23Z</time>
					</trkpt>
					<trkpt lat="45.391700" lon="6.706690">
						<ele>1592</ele>
						<time>2019-06-12T17:05:31Z</time>
					</trkpt>
					<trkpt lat="45.391750" lon="6.706600">
						<ele>1593</ele>
						<time>2019-06-12T17:05:37Z</time>
					</trkpt>
					<trkpt lat="45.391730" lon="6.706500">
						<ele>1595</ele>
						<time>2019-06-12T17:05:43Z</time>
					</trkpt>
					<trkpt lat="45.391690" lon="6.706390">
						<ele>1597</ele>
						<time>2019-06-12T17:05:50Z</time>
					</trkpt>
					<trkpt lat="45.391700" lon="6.706270">
						<ele>1599</ele>
						<time>2019-06-12T17:05:57Z</time>
					</trkpt>
					<trkpt lat="45.391760" lon="6.706040">
						<ele>1600</ele>
						<time>2019-06-12T17:06:11Z</time>
					</trkpt>
					<trkpt lat="45.391800" lon="6.705960">
						<ele>1600</ele>
						<time>2019-06-12T17:06:16Z</time>
					</trkpt>
					<trkpt lat="45.391920" lon="6.705750">
						<ele>1600</ele>
						<time>2019-06-12T17:06:32Z</time>
					</trkpt>
					<trkpt lat="45.391970" lon="6.705670">
						<ele>1600</ele>
						<time>2019-06-12T17:06:38Z</time>
					</trkpt>
					<trkpt lat="45.392020" lon="6.705590">
						<ele>1600</ele>
						<time>2019-06-12T17:06:44Z</time>
					</trkpt>
					<trkpt lat="45.392050" lon="6.705470">
						<ele>1601</ele>
						<time>2019-06-12T17:06:51Z</time>
					</trkpt>
					<trkpt lat="45.392050" lon="6.705330">
						<ele>1604</ele>
						<time>2019-06-12T17:06:59Z</time>
					</trkpt>
					<trkpt lat="45.392010" lon="6.705060">
						<ele>1609</ele>
						<time>2019-06-12T17:07:14Z</time>
					</trkpt>
					<trkpt lat="45.392020" lon="6.704960">
						<ele>1611</ele>
						<time>2019-06-12T17:07:20Z</time>
					</trkpt>
					<trkpt lat="45.392050" lon="6.704770">
						<ele>1613</ele>
						<time>2019-06-12T17:07:31Z</time>
					</trkpt>
					<trkpt lat="45.392050" lon="6.704740">
						<ele>1613</ele>
						<time>2019-06-12T17:07:33Z</time>
					</trkpt>
					<trkpt lat="45.392160" lon="6.704660">
						<ele>1611</ele>
						<time>2019-06-12T17:07:42Z</time>
					</trkpt>
					<trkpt lat="45.392310" lon="6.704500">
						<ele>1609</ele>
						<time>2019-06-12T17:07:57Z</time>
					</trkpt>
					<trkpt lat="45.392280" lon="6.704370">
						<ele>1612</ele>
						<time>2019-06-12T17:08:05Z</time>
					</trkpt>
					<trkpt lat="45.392240" lon="6.704300">
						<ele>1614</ele>
						<time>2019-06-12T17:08:10Z</time>
					</trkpt>
					<trkpt lat="45.392200" lon="6.704270">
						<ele>1616</ele>
						<time>2019-06-12T17:08:14Z</time>
					</trkpt>
					<trkpt lat="45.392150" lon="6.704260">
						<ele>1618</ele>
						<time>2019-06-12T17:08:18Z</time>
					</trkpt>
					<trkpt lat="45.392090" lon="6.704300">
						<ele>1620</ele>
						<time>2019-06-12T17:08:23Z</time>
					</trkpt>
					<trkpt lat="45.391900" lon="6.704450">
						<ele>1623</ele>
						<time>2019-06-12T17:08:41Z</time>
					</trkpt>
					<trkpt lat="45.391820" lon="6.704540">
						<ele>1625</ele>
						<time>2019-06-12T17:08:49Z</time>
					</trkpt>
					<trkpt lat="45.391760" lon="6.704680">
						<ele>1624</ele>
						<time>2019-06-12T17:08:58Z</time>
					</trkpt>
					<trkpt lat="45.391750" lon="6.704870">
						<ele>1621</ele>
						<time>2019-06-12T17:09:09Z</time>
					</trkpt>
					<trkpt lat="45.391660" lon="6.705010">
						<ele>1622</ele>
						<time>2019-06-12T17:09:19Z</time>
					</trkpt>
					<trkpt lat="45.391560" lon="6.705080">
						<ele>1623</ele>
						<time>2019-06-12T17:09:28Z</time>
					</trkpt>
					<trkpt lat="45.391470" lon="6.705130">
						<ele>1624</ele>
						<time>2019-06-12T17:09:36Z</time>
					</trkpt>
					<trkpt lat="45.391340" lon="6.705170">
						<ele>1626</ele>
						<time>2019-06-12T17:09:47Z</time>
					</trkpt>
					<trkpt lat="45.391210" lon="6.705090">
						<ele>1631</ele>
						<time>2019-06-12T17:09:58Z</time>
					</trkpt>
					<trkpt lat="45.391110" lon="6.705040">
						<ele>1634</ele>
						<time>2019-06-12T17:10:06Z</time>
					</trkpt>
					<trkpt lat="45.390930" lon="6.704950">
						<ele>1640</ele>
						<time>2019-06-12T17:10:22Z</time>
					</trkpt>
					<trkpt lat="45.390680" lon="6.704790">
						<ele>1649</ele>
						<time>2019-06-12T17:10:44Z</time>
					</trkpt>
					<trkpt lat="45.390540" lon="6.704710">
						<ele>1654</ele>
						<time>2019-06-12T17:10:56Z</time>
					</trkpt>
					<trkpt lat="45.390400" lon="6.704760">
						<ele>1655</ele>
						<time>2019-06-12T17:11:07Z</time>
					</trkpt>
					<trkpt lat="45.390250" lon="6.704840">
						<ele>1655</ele>
						<time>2019-06-12T17:11:20Z</time>
					</trkpt>
					<trkpt lat="45.390110" lon="6.705010">
						<ele>1654</ele>
						<time>2019-06-12T17:11:35Z</time>
					</trkpt>
					<trkpt lat="45.389710" lon="6.705170">
						<ele>1657</ele>
						<time>2019-06-12T17:12:08Z</time>
					</trkpt>
					<trkpt lat="45.389580" lon="6.705200">
						<ele>1658</ele>
						<time>2019-06-12T17:12:19Z</time>
					</trkpt>
					<trkpt lat="45.389420" lon="6.705180">
						<ele>1660</ele>
						<time>2019-06-12T17:12:32Z</time>
					</trkpt>
					<trkpt lat="45.389060" lon="6.705070">
						<ele>1666</ele>
						<time>2019-06-12T17:13:01Z</time>
					</trkpt>
					<trkpt lat="45.388880" lon="6.704980">
						<ele>1671</ele>
						<time>2019-06-12T17:13:16Z</time>
					</trkpt>
					<trkpt lat="45.388730" lon="6.704970">
						<ele>1673</ele>
						<time>2019-06-12T17:13:28Z</time>
					</trkpt>
					<trkpt lat="45.388590" lon="6.704970">
						<ele>1674</ele>
						<time>2019-06-12T17:13:40Z</time>
					</trkpt>
					<trkpt lat="45.388470" lon="6.704950">
						<ele>1676</ele>
						<time>2019-06-12T17:13:49Z</time>
					</trkpt>
					<trkpt lat="45.388360" lon="6.704950">
						<ele>1678</ele>
						<time>2019-06-12T17:13:58Z</time>
					</trkpt>
					<trkpt lat="45.388160" lon="6.705050">
						<ele>1681</ele>
						<time>2019-06-12T17:14:15Z</time>
					</trkpt>
					<trkpt lat="45.387920" lon="6.705150">
						<ele>1688</ele>
						<time>2019-06-12T17:14:35Z</time>
					</trkpt>
					<trkpt lat="45.387800" lon="6.705190">
						<ele>1692</ele>
						<time>2019-06-12T17:14:45Z</time>
					</trkpt>
					<trkpt lat="45.387700" lon="6.705230">
						<ele>1695</ele>
						<time>2019-06-12T17:14:53Z</time>
					</trkpt>
					<trkpt lat="45.387660" lon="6.705330">
						<ele>1694</ele>
						<time>2019-06-12T17:15:00Z</time>
					</trkpt>
					<trkpt lat="45.387610" lon="6.705530">
						<ele>1693</ele>
						<time>2019-06-12T17:15:12Z</time>
					</trkpt>
					<trkpt lat="45.387540" lon="6.705600">
						<ele>1694</ele>
						<time>2019-06-12T17:15:18Z</time>
					</trkpt>
					<trkpt lat="45.387090" lon="6.705840">
						<ele>1696</ele>
						<time>2019-06-12T17:15:57Z</time>
					</trkpt>
					</trkseg>
				</trk>
			</gpx>